sensor_id;sensor_type;location;lat;lon;timestamp;temperature;humidity
21123;DHT22;10719;48.130;11.630;2023-07-24T00:00:41;18.70;99.90
21123;DHT22;10719;48.130;11.630;2023-07-24T00:03:06;18.80;99.90
21123;DHT22;10719;48.130;11.630;2023-07-24T00:05:32;18.80;99.90
21123;DHT22;10719;48.130;11.630;2023-07-24T00:07:57;18.80;99.90
21123;DHT22;10719;48.130;11.630;2023-07-24T00:10:24;18.70;99.90
21123;DHT22;10719;48.130;11.630;2023-07-24T00:12:50;18.70;99.90
21123;DHT22;10719;48.130;11.630;2023-07-24T00:15:15;18.70;99.90
21123;DHT22;10719;48.130;11.630;2023-07-24T00:17:41;18.70;99.90
21123;DHT22;10719;48.130;11.630;2023-07-24T00:20:07;18.70;99.90
21123;DHT22;10719;48.130;11.630;2023-07-24T00:22:33;18.70;99.90
21123;DHT22;10719;48.130;11.630;2023-07-24T00:24:59;18.70;99.90
21123;DHT22;10719;48.130;11.630;2023-07-24T00:27:24;18.60;99.90
21123;DHT22;10719;48.130;11.630;2023-07-24T00:29:50;18.60;99.90
21123;DHT22;10719;48.130;11.630;2023-07-24T00:32:15;18.60;99.90
21123;DHT22;10719;48.130;11.630;2023-07-24T00:34:41;18.60;99.90
21123;DHT22;10719;48.130;11.630;2023-07-24T00:37:07;18.60;99.90
21123;DHT22;10719;48.130;11.630;2023-07-24T00:39:32;18.60;99.90
21123;DHT22;10719;48.130;11.630;2023-07-24T00:41:58;18.60;99.90
21123;DHT22;10719;48.130;11.630;2023-07-24T00:44:23;18.60;99.90
21123;DHT22;10719;48.130;11.630;2023-07-24T00:46:49;18.50;99.90
21123;DHT22;10719;48.130;11.630;2023-07-24T00:49:15;18.50;99.90
21123;DHT22;10719;48.130;11.630;2023-07-24T00:51:41;18.50;99.90
21123;DHT22;10719;48.130;11.630;2023-07-24T00:54:08;18.50;99.90
21123;DHT22;10719;48.130;11.630;2023-07-24T00:56:34;18.40;99.90
21123;DHT22;10719;48.130;11.630;2023-07-24T00:59:00;18.40;99.90
21123;DHT22;10719;48.130;11.630;2023-07-24T01:01:27;18.30;99.90
21123;DHT22;10719;48.130;11.630;2023-07-24T01:03:53;18.30;99.90
21123;DHT22;10719;48.130;11.630;2023-07-24T01:06:19;18.20;99.90
21123;DHT22;10719;48.130;11.630;2023-07-24T01:08:44;18.20;99.90
21123;DHT22;10719;48.130;11.630;2023-07-24T01:11:19;18.10;99.90
21123;DHT22;10719;48.130;11.630;2023-07-24T01:13:57;18.10;99.90
21123;DHT22;10719;48.130;11.630;2023-07-24T01:16:29;18.00;99.90
21123;DHT22;10719;48.130;11.630;2023-07-24T01:18:59;18.00;99.90
21123;DHT22;10719;48.130;11.630;2023-07-24T01:21:33;18.00;99.90
21123;DHT22;10719;48.130;11.630;2023-07-24T01:24:29;17.90;99.90
21123;DHT22;10719;48.130;11.630;2023-07-24T01:26:57;17.90;99.90
21123;DHT22;10719;48.130;11.630;2023-07-24T01:29:22;17.90;99.90
21123;DHT22;10719;48.130;11.630;2023-07-24T01:31:48;17.90;99.90
21123;DHT22;10719;48.130;11.630;2023-07-24T01:34:14;17.90;99.90
21123;DHT22;10719;48.130;11.630;2023-07-24T01:36:39;17.90;99.90
21123;DHT22;10719;48.130;11.630;2023-07-24T01:39:05;17.90;99.90
21123;DHT22;10719;48.130;11.630;2023-07-24T01:41:31;17.90;99.90
21123;DHT22;10719;48.130;11.630;2023-07-24T01:43:59;17.80;99.90
21123;DHT22;10719;48.130;11.630;2023-07-24T01:46:25;17.80;99.90
21123;DHT22;10719;48.130;11.630;2023-07-24T01:48:51;17.80;99.90
21123;DHT22;10719;48.130;11.630;2023-07-24T01:51:17;17.80;99.90
21123;DHT22;10719;48.130;11.630;2023-07-24T01:53:43;17.80;99.90
21123;DHT22;10719;48.130;11.630;2023-07-24T01:56:08;17.80;99.90
21123;DHT22;10719;48.130;11.630;2023-07-24T01:58:34;17.70;99.90
21123;DHT22;10719;48.130;11.630;2023-07-24T02:01:00;17.80;99.90
21123;DHT22;10719;48.130;11.630;2023-07-24T02:03:25;17.80;99.90
21123;DHT22;10719;48.130;11.630;2023-07-24T02:05:51;17.80;99.90
21123;DHT22;10719;48.130;11.630;2023-07-24T02:08:17;17.80;99.90
21123;DHT22;10719;48.130;11.630;2023-07-24T02:10:42;17.90;99.90
21123;DHT22;10719;48.130;11.630;2023-07-24T02:13:08;17.90;99.90
21123;DHT22;10719;48.130;11.630;2023-07-24T02:15:34;17.90;99.90
21123;DHT22;10719;48.130;11.630;2023-07-24T02:18:00;17.90;99.90
21123;DHT22;10719;48.130;11.630;2023-07-24T02:20:25;18.00;99.90
21123;DHT22;10719;48.130;11.630;2023-07-24T02:22:51;18.00;99.90
21123;DHT22;10719;48.130;11.630;2023-07-24T02:25:17;18.00;99.90
21123;DHT22;10719;48.130;11.630;2023-07-24T02:27:42;18.00;99.90
21123;DHT22;10719;48.130;11.630;2023-07-24T02:30:08;18.10;99.90
21123;DHT22;10719;48.130;11.630;2023-07-24T02:32:34;18.00;99.90
21123;DHT22;10719;48.130;11.630;2023-07-24T02:34:59;18.10;99.90
21123;DHT22;10719;48.130;11.630;2023-07-24T02:37:25;18.10;99.90
21123;DHT22;10719;48.130;11.630;2023-07-24T02:39:52;18.00;99.90
21123;DHT22;10719;48.130;11.630;2023-07-24T02:42:18;18.10;99.90
21123;DHT22;10719;48.130;11.630;2023-07-24T02:44:44;18.20;99.90
21123;DHT22;10719;48.130;11.630;2023-07-24T02:47:09;18.40;99.90
21123;DHT22;10719;48.130;11.630;2023-07-24T02:49:35;18.50;99.90
21123;DHT22;10719;48.130;11.630;2023-07-24T02:52:00;18.60;99.90
21123;DHT22;10719;48.130;11.630;2023-07-24T02:54:26;18.60;99.90
21123;DHT22;10719;48.130;11.630;2023-07-24T02:56:52;18.70;99.90
21123;DHT22;10719;48.130;11.630;2023-07-24T02:59:18;18.70;99.90
21123;DHT22;10719;48.130;11.630;2023-07-24T03:01:43;18.80;99.90
21123;DHT22;10719;48.130;11.630;2023-07-24T03:04:09;18.80;99.90
21123;DHT22;10719;48.130;11.630;2023-07-24T03:06:34;18.80;99.90
21123;DHT22;10719;48.130;11.630;2023-07-24T03:09:01;18.80;99.90
21123;DHT22;10719;48.130;11.630;2023-07-24T03:11:26;18.70;99.90
21123;DHT22;10719;48.130;11.630;2023-07-24T03:13:52;18.80;99.90
21123;DHT22;10719;48.130;11.630;2023-07-24T03:16:17;18.80;99.90
21123;DHT22;10719;48.130;11.630;2023-07-24T03:18:44;18.40;99.90
21123;DHT22;10719;48.130;11.630;2023-07-24T03:21:10;18.00;99.90
21123;DHT22;10719;48.130;11.630;2023-07-24T03:23:36;17.80;99.90
21123;DHT22;10719;48.130;11.630;2023-07-24T03:26:01;17.60;99.90
21123;DHT22;10719;48.130;11.630;2023-07-24T03:28:27;17.40;99.90
21123;DHT22;10719;48.130;11.630;2023-07-24T03:30:53;17.40;99.90
21123;DHT22;10719;48.130;11.630;2023-07-24T03:33:19;17.30;99.90
21123;DHT22;10719;48.130;11.630;2023-07-24T03:35:45;17.20;99.90
21123;DHT22;10719;48.130;11.630;2023-07-24T03:38:10;17.20;99.90
21123;DHT22;10719;48.130;11.630;2023-07-24T03:40:36;17.20;99.90
21123;DHT22;10719;48.130;11.630;2023-07-24T03:43:01;17.20;99.90
21123;DHT22;10719;48.130;11.630;2023-07-24T03:45:27;17.20;99.90
21123;DHT22;10719;48.130;11.630;2023-07-24T03:47:53;17.20;99.90
21123;DHT22;10719;48.130;11.630;2023-07-24T03:50:18;17.20;99.90
21123;DHT22;10719;48.130;11.630;2023-07-24T03:52:44;17.10;99.90
21123;DHT22;10719;48.130;11.630;2023-07-24T03:55:09;17.00;99.90
21123;DHT22;10719;48.130;11.630;2023-07-24T03:57:36;17.10;99.90
21123;DHT22;10719;48.130;11.630;2023-07-24T04:00:02;17.10;99.90
21123;DHT22;10719;48.130;11.630;2023-07-24T04:02:28;17.00;99.90
21123;DHT22;10719;48.130;11.630;2023-07-24T04:04:53;17.00;99.90
21123;DHT22;10719;48.130;11.630;2023-07-24T04:07:19;17.00;99.90
21123;DHT22;10719;48.130;11.630;2023-07-24T04:09:45;17.10;99.90
21123;DHT22;10719;48.130;11.630;2023-07-24T04:12:10;17.10;99.90
21123;DHT22;10719;48.130;11.630;2023-07-24T04:14:36;17.10;99.90
21123;DHT22;10719;48.130;11.630;2023-07-24T04:17:01;17.10;99.90
21123;DHT22;10719;48.130;11.630;2023-07-24T04:19:27;17.00;99.90
21123;DHT22;10719;48.130;11.630;2023-07-24T04:21:53;16.90;99.90
21123;DHT22;10719;48.130;11.630;2023-07-24T04:24:18;16.90;99.90
21123;DHT22;10719;48.130;11.630;2023-07-24T04:26:44;16.90;99.90
21123;DHT22;10719;48.130;11.630;2023-07-24T04:29:09;16.80;99.90
21123;DHT22;10719;48.130;11.630;2023-07-24T04:31:35;16.80;99.90
21123;DHT22;10719;48.130;11.630;2023-07-24T04:34:00;16.80;99.90
21123;DHT22;10719;48.130;11.630;2023-07-24T04:36:26;16.90;99.90
21123;DHT22;10719;48.130;11.630;2023-07-24T04:38:52;16.90;99.90
21123;DHT22;10719;48.130;11.630;2023-07-24T04:41:17;16.80;99.90
21123;DHT22;10719;48.130;11.630;2023-07-24T04:43:43;16.80;99.90
21123;DHT22;10719;48.130;11.630;2023-07-24T04:46:08;16.90;99.90
21123;DHT22;10719;48.130;11.630;2023-07-24T04:48:34;16.90;99.90
21123;DHT22;10719;48.130;11.630;2023-07-24T04:51:00;16.90;99.90
21123;DHT22;10719;48.130;11.630;2023-07-24T04:53:25;16.90;99.90
21123;DHT22;10719;48.130;11.630;2023-07-24T04:55:51;17.00;99.90
21123;DHT22;10719;48.130;11.630;2023-07-24T04:58:16;17.00;99.90
21123;DHT22;10719;48.130;11.630;2023-07-24T05:00:43;17.00;99.90
21123;DHT22;10719;48.130;11.630;2023-07-24T05:03:08;17.10;99.90
21123;DHT22;10719;48.130;11.630;2023-07-24T05:05:37;17.10;99.90
21123;DHT22;10719;48.130;11.630;2023-07-24T05:08:03;17.20;99.90
21123;DHT22;10719;48.130;11.630;2023-07-24T05:10:28;17.20;99.90
21123;DHT22;10719;48.130;11.630;2023-07-24T05:12:54;17.20;99.90
21123;DHT22;10719;48.130;11.630;2023-07-24T05:15:22;17.20;99.90
21123;DHT22;10719;48.130;11.630;2023-07-24T05:17:47;17.20;99.90
21123;DHT22;10719;48.130;11.630;2023-07-24T05:20:13;17.20;99.90
21123;DHT22;10719;48.130;11.630;2023-07-24T05:22:38;17.30;99.90
21123;DHT22;10719;48.130;11.630;2023-07-24T05:25:04;17.30;99.90
21123;DHT22;10719;48.130;11.630;2023-07-24T05:27:30;17.20;99.90
21123;DHT22;10719;48.130;11.630;2023-07-24T05:29:56;17.20;99.90
21123;DHT22;10719;48.130;11.630;2023-07-24T05:32:21;17.20;99.90
21123;DHT22;10719;48.130;11.630;2023-07-24T05:34:47;17.20;99.90
21123;DHT22;10719;48.130;11.630;2023-07-24T05:37:12;17.20;99.90
21123;DHT22;10719;48.130;11.630;2023-07-24T05:39:38;17.20;99.90
21123;DHT22;10719;48.130;11.630;2023-07-24T05:42:04;17.30;99.90
21123;DHT22;10719;48.130;11.630;2023-07-24T05:44:29;17.30;99.90
21123;DHT22;10719;48.130;11.630;2023-07-24T05:46:55;17.40;99.90
21123;DHT22;10719;48.130;11.630;2023-07-24T05:49:20;17.60;99.90
21123;DHT22;10719;48.130;11.630;2023-07-24T05:51:46;17.80;99.90
21123;DHT22;10719;48.130;11.630;2023-07-24T05:54:11;17.90;99.90
21123;DHT22;10719;48.130;11.630;2023-07-24T05:56:37;18.00;99.90
21123;DHT22;10719;48.130;11.630;2023-07-24T05:59:03;18.10;99.90
21123;DHT22;10719;48.130;11.630;2023-07-24T06:01:28;18.10;99.90
21123;DHT22;10719;48.130;11.630;2023-07-24T06:03:54;18.20;99.90
21123;DHT22;10719;48.130;11.630;2023-07-24T06:06:19;18.40;99.90
21123;DHT22;10719;48.130;11.630;2023-07-24T06:08:45;18.50;99.90
21123;DHT22;10719;48.130;11.630;2023-07-24T06:11:12;18.80;99.90
21123;DHT22;10719;48.130;11.630;2023-07-24T06:13:38;19.00;99.90
21123;DHT22;10719;48.130;11.630;2023-07-24T06:16:04;19.20;99.90
21123;DHT22;10719;48.130;11.630;2023-07-24T06:18:29;19.30;99.90
21123;DHT22;10719;48.130;11.630;2023-07-24T06:20:55;19.30;99.90
21123;DHT22;10719;48.130;11.630;2023-07-24T06:23:20;19.40;99.90
21123;DHT22;10719;48.130;11.630;2023-07-24T06:25:46;19.30;99.90
21123;DHT22;10719;48.130;11.630;2023-07-24T06:28:11;19.30;99.90
21123;DHT22;10719;48.130;11.630;2023-07-24T06:30:38;19.30;99.90
21123;DHT22;10719;48.130;11.630;2023-07-24T06:33:04;19.20;99.90
21123;DHT22;10719;48.130;11.630;2023-07-24T06:35:30;19.30;99.90
21123;DHT22;10719;48.130;11.630;2023-07-24T06:37:56;19.50;99.90
21123;DHT22;10719;48.130;11.630;2023-07-24T06:40:21;19.60;99.90
21123;DHT22;10719;48.130;11.630;2023-07-24T06:42:47;19.70;99.90
21123;DHT22;10719;48.130;11.630;2023-07-24T06:45:13;19.80;99.90
21123;DHT22;10719;48.130;11.630;2023-07-24T06:47:38;19.90;99.90
21123;DHT22;10719;48.130;11.630;2023-07-24T06:50:04;20.20;99.90
21123;DHT22;10719;48.130;11.630;2023-07-24T06:52:31;20.20;99.90
21123;DHT22;10719;48.130;11.630;2023-07-24T06:54:57;20.40;99.90
21123;DHT22;10719;48.130;11.630;2023-07-24T06:57:23;20.50;99.90
21123;DHT22;10719;48.130;11.630;2023-07-24T06:59:49;20.70;99.90
21123;DHT22;10719;48.130;11.630;2023-07-24T07:02:15;20.90;99.90
21123;DHT22;10719;48.130;11.630;2023-07-24T07:04:40;21.00;99.90
21123;DHT22;10719;48.130;11.630;2023-07-24T07:07:06;21.20;99.90
21123;DHT22;10719;48.130;11.630;2023-07-24T07:09:32;21.20;99.90
21123;DHT22;10719;48.130;11.630;2023-07-24T07:11:57;21.30;99.90
21123;DHT22;10719;48.130;11.630;2023-07-24T07:14:23;21.50;99.90
21123;DHT22;10719;48.130;11.630;2023-07-24T07:16:48;21.80;99.90
21123;DHT22;10719;48.130;11.630;2023-07-24T07:19:14;22.00;99.90
21123;DHT22;10719;48.130;11.630;2023-07-24T07:21:40;22.40;99.90
21123;DHT22;10719;48.130;11.630;2023-07-24T07:24:05;22.70;99.90
21123;DHT22;10719;48.130;11.630;2023-07-24T07:26:31;22.80;99.90
21123;DHT22;10719;48.130;11.630;2023-07-24T07:28:56;23.10;99.90
21123;DHT22;10719;48.130;11.630;2023-07-24T07:31:22;23.00;99.90
21123;DHT22;10719;48.130;11.630;2023-07-24T07:33:48;23.00;99.90
21123;DHT22;10719;48.130;11.630;2023-07-24T07:36:14;23.00;99.90
21123;DHT22;10719;48.130;11.630;2023-07-24T07:38:39;22.80;99.90
21123;DHT22;10719;48.130;11.630;2023-07-24T07:41:05;22.70;99.90
21123;DHT22;10719;48.130;11.630;2023-07-24T07:43:31;22.30;99.90
21123;DHT22;10719;48.130;11.630;2023-07-24T07:45:57;22.00;99.90
21123;DHT22;10719;48.130;11.630;2023-07-24T07:48:24;21.80;99.90
21123;DHT22;10719;48.130;11.630;2023-07-24T07:50:51;21.80;99.90
21123;DHT22;10719;48.130;11.630;2023-07-24T07:53:17;21.70;99.90
21123;DHT22;10719;48.130;11.630;2023-07-24T07:55:43;21.40;99.90
21123;DHT22;10719;48.130;11.630;2023-07-24T07:58:09;21.30;99.90
21123;DHT22;10719;48.130;11.630;2023-07-24T08:00:34;21.20;99.90
21123;DHT22;10719;48.130;11.630;2023-07-24T08:03:00;21.00;99.90
21123;DHT22;10719;48.130;11.630;2023-07-24T08:05:26;20.90;99.90
21123;DHT22;10719;48.130;11.630;2023-07-24T08:07:51;20.80;99.90
21123;DHT22;10719;48.130;11.630;2023-07-24T08:10:17;20.80;99.90
21123;DHT22;10719;48.130;11.630;2023-07-24T08:12:43;20.90;99.90
21123;DHT22;10719;48.130;11.630;2023-07-24T08:15:10;20.90;99.90
21123;DHT22;10719;48.130;11.630;2023-07-24T08:17:36;20.90;99.90
21123;DHT22;10719;48.130;11.630;2023-07-24T08:20:01;21.00;99.90
21123;DHT22;10719;48.130;11.630;2023-07-24T08:22:27;21.00;99.90
21123;DHT22;10719;48.130;11.630;2023-07-24T08:24:52;21.00;99.90
21123;DHT22;10719;48.130;11.630;2023-07-24T08:27:18;20.90;99.90
21123;DHT22;10719;48.130;11.630;2023-07-24T08:29:44;20.90;99.90
21123;DHT22;10719;48.130;11.630;2023-07-24T08:32:09;20.90;99.90
21123;DHT22;10719;48.130;11.630;2023-07-24T08:34:35;20.90;99.90
21123;DHT22;10719;48.130;11.630;2023-07-24T08:37:00;20.90;99.90
21123;DHT22;10719;48.130;11.630;2023-07-24T08:39:26;20.90;99.90
21123;DHT22;10719;48.130;11.630;2023-07-24T08:41:51;20.80;99.90
21123;DHT22;10719;48.130;11.630;2023-07-24T08:44:17;20.80;99.90
21123;DHT22;10719;48.130;11.630;2023-07-24T08:46:44;20.80;99.90
21123;DHT22;10719;48.130;11.630;2023-07-24T08:49:14;20.90;99.90
21123;DHT22;10719;48.130;11.630;2023-07-24T08:51:44;21.00;99.90
21123;DHT22;10719;48.130;11.630;2023-07-24T08:54:11;21.10;99.90
21123;DHT22;10719;48.130;11.630;2023-07-24T08:56:37;21.00;99.90
21123;DHT22;10719;48.130;11.630;2023-07-24T08:59:05;21.10;99.90
21123;DHT22;10719;48.130;11.630;2023-07-24T09:01:31;21.20;99.90
21123;DHT22;10719;48.130;11.630;2023-07-24T09:03:57;21.30;99.90
21123;DHT22;10719;48.130;11.630;2023-07-24T09:06:23;21.20;99.90
21123;DHT22;10719;48.130;11.630;2023-07-24T09:08:48;21.10;99.90
21123;DHT22;10719;48.130;11.630;2023-07-24T09:11:14;21.10;99.90
21123;DHT22;10719;48.130;11.630;2023-07-24T09:13:43;21.10;99.90
21123;DHT22;10719;48.130;11.630;2023-07-24T09:16:23;21.10;99.90
21123;DHT22;10719;48.130;11.630;2023-07-24T09:18:50;21.00;99.90
21123;DHT22;10719;48.130;11.630;2023-07-24T09:21:27;21.10;99.90
21123;DHT22;10719;48.130;11.630;2023-07-24T09:23:53;21.00;99.90
21123;DHT22;10719;48.130;11.630;2023-07-24T09:26:19;21.10;99.90
21123;DHT22;10719;48.130;11.630;2023-07-24T09:28:52;21.10;99.90
21123;DHT22;10719;48.130;11.630;2023-07-24T09:31:18;21.20;99.90
21123;DHT22;10719;48.130;11.630;2023-07-24T09:33:44;21.40;99.90
21123;DHT22;10719;48.130;11.630;2023-07-24T09:36:10;21.60;99.90
21123;DHT22;10719;48.130;11.630;2023-07-24T09:38:40;22.00;99.90
21123;DHT22;10719;48.130;11.630;2023-07-24T09:41:06;22.50;99.90
21123;DHT22;10719;48.130;11.630;2023-07-24T09:43:32;22.90;99.90
21123;DHT22;10719;48.130;11.630;2023-07-24T09:46:00;23.20;99.90
21123;DHT22;10719;48.130;11.630;2023-07-24T09:48:27;23.40;99.90
21123;DHT22;10719;48.130;11.630;2023-07-24T09:50:57;23.40;99.90
21123;DHT22;10719;48.130;11.630;2023-07-24T09:56:10;24.20;99.90
21123;DHT22;10719;48.130;11.630;2023-07-24T09:58:38;24.80;99.90
21123;DHT22;10719;48.130;11.630;2023-07-24T10:01:05;25.20;99.90
21123;DHT22;10719;48.130;11.630;2023-07-24T10:03:34;25.60;99.90
21123;DHT22;10719;48.130;11.630;2023-07-24T10:06:00;25.90;99.90
21123;DHT22;10719;48.130;11.630;2023-07-24T10:08:26;25.70;99.90
21123;DHT22;10719;48.130;11.630;2023-07-24T10:10:52;25.50;99.90
21123;DHT22;10719;48.130;11.630;2023-07-24T10:13:20;25.30;99.90
21123;DHT22;10719;48.130;11.630;2023-07-24T10:15:47;25.40;99.90
21123;DHT22;10719;48.130;11.630;2023-07-24T10:18:15;25.40;99.90
21123;DHT22;10719;48.130;11.630;2023-07-24T10:20:42;25.60;99.90
21123;DHT22;10719;48.130;11.630;2023-07-24T10:23:09;25.80;99.90
21123;DHT22;10719;48.130;11.630;2023-07-24T10:25:39;26.20;99.90
21123;DHT22;10719;48.130;11.630;2023-07-24T10:28:10;26.40;99.90
21123;DHT22;10719;48.130;11.630;2023-07-24T10:30:37;26.40;99.90
21123;DHT22;10719;48.130;11.630;2023-07-24T10:33:23;26.20;99.90
21123;DHT22;10719;48.130;11.630;2023-07-24T10:36:07;26.40;99.90
21123;DHT22;10719;48.130;11.630;2023-07-24T10:38:39;26.50;99.90
21123;DHT22;10719;48.130;11.630;2023-07-24T10:41:07;26.60;99.90
21123;DHT22;10719;48.130;11.630;2023-07-24T10:43:44;26.60;99.90
21123;DHT22;10719;48.130;11.630;2023-07-24T10:46:10;27.00;99.90
21123;DHT22;10719;48.130;11.630;2023-07-24T10:48:36;27.00;99.90
21123;DHT22;10719;48.130;11.630;2023-07-24T10:51:09;26.90;99.90
21123;DHT22;10719;48.130;11.630;2023-07-24T10:53:38;26.60;99.90
21123;DHT22;10719;48.130;11.630;2023-07-24T10:56:08;26.70;99.90
21123;DHT22;10719;48.130;11.630;2023-07-24T10:58:34;26.30;99.90
21123;DHT22;10719;48.130;11.630;2023-07-24T11:01:04;26.20;99.90
21123;DHT22;10719;48.130;11.630;2023-07-24T11:03:31;26.50;99.90
21123;DHT22;10719;48.130;11.630;2023-07-24T11:05:57;26.70;99.90
21123;DHT22;10719;48.130;11.630;2023-07-24T11:08:23;27.00;99.90
21123;DHT22;10719;48.130;11.630;2023-07-24T11:10:50;27.30;99.90
21123;DHT22;10719;48.130;11.630;2023-07-24T11:13:18;27.70;99.90
21123;DHT22;10719;48.130;11.630;2023-07-24T11:15:44;28.20;99.90
21123;DHT22;10719;48.130;11.630;2023-07-24T11:18:10;28.30;99.90
21123;DHT22;10719;48.130;11.630;2023-07-24T11:20:48;28.90;99.90
21123;DHT22;10719;48.130;11.630;2023-07-24T11:23:14;29.00;99.90
21123;DHT22;10719;48.130;11.630;2023-07-24T11:25:40;29.40;99.90
21123;DHT22;10719;48.130;11.630;2023-07-24T11:28:07;29.80;99.90
21123;DHT22;10719;48.130;11.630;2023-07-24T11:30:33;29.70;99.90
21123;DHT22;10719;48.130;11.630;2023-07-24T11:33:01;29.60;99.90
21123;DHT22;10719;48.130;11.630;2023-07-24T11:35:27;29.30;99.90
21123;DHT22;10719;48.130;11.630;2023-07-24T11:37:53;29.00;99.90
21123;DHT22;10719;48.130;11.630;2023-07-24T11:40:19;29.10;99.90
21123;DHT22;10719;48.130;11.630;2023-07-24T11:42:47;29.00;99.90
21123;DHT22;10719;48.130;11.630;2023-07-24T11:45:13;28.60;99.90
21123;DHT22;10719;48.130;11.630;2023-07-24T11:47:49;28.60;99.90
21123;DHT22;10719;48.130;11.630;2023-07-24T11:50:16;28.40;99.90
21123;DHT22;10719;48.130;11.630;2023-07-24T11:52:47;28.60;99.90
21123;DHT22;10719;48.130;11.630;2023-07-24T11:55:18;28.60;99.90
21123;DHT22;10719;48.130;11.630;2023-07-24T11:57:58;28.10;99.90
21123;DHT22;10719;48.130;11.630;2023-07-24T12:00:24;28.00;99.90
21123;DHT22;10719;48.130;11.630;2023-07-24T12:02:50;27.80;99.90
21123;DHT22;10719;48.130;11.630;2023-07-24T12:05:16;27.60;99.90
21123;DHT22;10719;48.130;11.630;2023-07-24T12:07:43;27.50;99.90
21123;DHT22;10719;48.130;11.630;2023-07-24T12:10:12;27.10;99.90
21123;DHT22;10719;48.130;11.630;2023-07-24T12:12:44;26.70;99.90
21123;DHT22;10719;48.130;11.630;2023-07-24T12:15:11;26.50;99.90
21123;DHT22;10719;48.130;11.630;2023-07-24T12:17:37;26.60;99.90
21123;DHT22;10719;48.130;11.630;2023-07-24T12:20:04;27.00;99.90
21123;DHT22;10719;48.130;11.630;2023-07-24T12:22:31;26.70;99.90
21123;DHT22;10719;48.130;11.630;2023-07-24T12:24:57;26.30;99.90
21123;DHT22;10719;48.130;11.630;2023-07-24T12:27:24;25.70;99.90
21123;DHT22;10719;48.130;11.630;2023-07-24T12:29:51;25.10;99.90
21123;DHT22;10719;48.130;11.630;2023-07-24T12:32:16;24.60;99.90
21123;DHT22;10719;48.130;11.630;2023-07-24T12:34:47;24.10;99.90
21123;DHT22;10719;48.130;11.630;2023-07-24T12:37:13;23.70;99.90
21123;DHT22;10719;48.130;11.630;2023-07-24T12:39:38;23.40;99.90
21123;DHT22;10719;48.130;11.630;2023-07-24T12:42:05;23.00;99.90
21123;DHT22;10719;48.130;11.630;2023-07-24T12:44:30;22.70;99.90
21123;DHT22;10719;48.130;11.630;2023-07-24T12:46:56;22.50;99.90
21123;DHT22;10719;48.130;11.630;2023-07-24T12:49:21;22.50;99.90
21123;DHT22;10719;48.130;11.630;2023-07-24T12:51:47;22.50;99.90
21123;DHT22;10719;48.130;11.630;2023-07-24T12:54:13;22.30;99.90
21123;DHT22;10719;48.130;11.630;2023-07-24T12:56:39;22.30;99.90
21123;DHT22;10719;48.130;11.630;2023-07-24T12:59:04;22.40;99.90
21123;DHT22;10719;48.130;11.630;2023-07-24T13:01:30;22.50;99.90
21123;DHT22;10719;48.130;11.630;2023-07-24T13:03:55;22.60;99.90
21123;DHT22;10719;48.130;11.630;2023-07-24T13:06:21;22.70;99.90
21123;DHT22;10719;48.130;11.630;2023-07-24T13:08:48;22.70;99.90
21123;DHT22;10719;48.130;11.630;2023-07-24T13:11:13;22.50;99.90
21123;DHT22;10719;48.130;11.630;2023-07-24T13:13:39;22.20;99.90
21123;DHT22;10719;48.130;11.630;2023-07-24T13:16:04;22.00;99.90
21123;DHT22;10719;48.130;11.630;2023-07-24T13:18:30;21.80;99.90
21123;DHT22;10719;48.130;11.630;2023-07-24T13:20:56;21.60;99.90
21123;DHT22;10719;48.130;11.630;2023-07-24T13:23:22;21.40;99.90
21123;DHT22;10719;48.130;11.630;2023-07-24T13:25:47;21.20;99.90
21123;DHT22;10719;48.130;11.630;2023-07-24T13:28:13;20.90;99.90
21123;DHT22;10719;48.130;11.630;2023-07-24T13:30:39;20.90;99.90
21123;DHT22;10719;48.130;11.630;2023-07-24T13:33:04;20.80;99.90
21123;DHT22;10719;48.130;11.630;2023-07-24T13:35:30;20.80;99.90
21123;DHT22;10719;48.130;11.630;2023-07-24T13:37:55;20.70;99.90
21123;DHT22;10719;48.130;11.630;2023-07-24T13:40:21;20.80;99.90
21123;DHT22;10719;48.130;11.630;2023-07-24T13:42:46;20.90;99.90
21123;DHT22;10719;48.130;11.630;2023-07-24T13:45:12;21.00;99.90
21123;DHT22;10719;48.130;11.630;2023-07-24T13:47:38;21.40;99.90
21123;DHT22;10719;48.130;11.630;2023-07-24T13:50:03;21.90;99.90
21123;DHT22;10719;48.130;11.630;2023-07-24T13:52:29;22.10;99.90
21123;DHT22;10719;48.130;11.630;2023-07-24T13:54:55;22.10;99.90
21123;DHT22;10719;48.130;11.630;2023-07-24T13:57:21;22.10;99.90
21123;DHT22;10719;48.130;11.630;2023-07-24T13:59:47;22.10;99.90
21123;DHT22;10719;48.130;11.630;2023-07-24T14:02:12;22.10;99.90
21123;DHT22;10719;48.130;11.630;2023-07-24T14:04:38;22.40;99.90
21123;DHT22;10719;48.130;11.630;2023-07-24T14:07:04;22.70;99.90
21123;DHT22;10719;48.130;11.630;2023-07-24T14:09:29;22.80;99.90
21123;DHT22;10719;48.130;11.630;2023-07-24T14:11:56;23.40;99.90
21123;DHT22;10719;48.130;11.630;2023-07-24T14:14:22;23.60;99.90
21123;DHT22;10719;48.130;11.630;2023-07-24T14:16:49;23.80;99.90
21123;DHT22;10719;48.130;11.630;2023-07-24T14:19:14;23.90;99.90
21123;DHT22;10719;48.130;11.630;2023-07-24T14:21:40;24.30;99.90
21123;DHT22;10719;48.130;11.630;2023-07-24T14:24:06;24.60;99.90
21123;DHT22;10719;48.130;11.630;2023-07-24T14:26:31;25.40;99.90
21123;DHT22;10719;48.130;11.630;2023-07-24T14:28:57;26.30;99.90
21123;DHT22;10719;48.130;11.630;2023-07-24T14:31:23;26.90;99.90
21123;DHT22;10719;48.130;11.630;2023-07-24T14:33:49;26.90;99.90
21123;DHT22;10719;48.130;11.630;2023-07-24T14:36:14;27.20;99.90
21123;DHT22;10719;48.130;11.630;2023-07-24T14:38:40;27.10;99.90
21123;DHT22;10719;48.130;11.630;2023-07-24T14:41:06;27.10;99.90
21123;DHT22;10719;48.130;11.630;2023-07-24T14:43:31;27.90;99.90
21123;DHT22;10719;48.130;11.630;2023-07-24T14:45:57;27.80;99.90
21123;DHT22;10719;48.130;11.630;2023-07-24T14:48:22;28.30;99.90
21123;DHT22;10719;48.130;11.630;2023-07-24T14:50:48;29.50;99.90
21123;DHT22;10719;48.130;11.630;2023-07-24T14:53:14;30.60;99.90
21123;DHT22;10719;48.130;11.630;2023-07-24T14:55:39;30.90;99.90
21123;DHT22;10719;48.130;11.630;2023-07-24T14:58:05;30.70;99.90
21123;DHT22;10719;48.130;11.630;2023-07-24T15:00:32;31.20;99.90
21123;DHT22;10719;48.130;11.630;2023-07-24T15:02:58;31.00;99.90
21123;DHT22;10719;48.130;11.630;2023-07-24T15:05:23;30.50;99.90
21123;DHT22;10719;48.130;11.630;2023-07-24T15:07:49;30.00;99.90
21123;DHT22;10719;48.130;11.630;2023-07-24T15:10:14;30.20;99.90
21123;DHT22;10719;48.130;11.630;2023-07-24T15:12:40;30.20;99.90